»·PEaware :: SKY134 KFHR-KORS

SKY134 :: KFHR-KORS

FLIGHT INFORMATION

Flight Status: Arrived
Operator:
Sky High Charters
More flights by this operator :: More flights under this callsign
Pilot: John C. (18682)
Aircraft: CESSNA 182 SKYLANE
(C182)
More flights by this aircraft type
Origin: KFHR Friday Harbor
United States
Destination: KORS Orcas Island
United States
More flights between these airports :: More routes between these airports
Route: +FHR CVV
File this flight plan on PilotEdge
Remarks:
Altitude:
(Current/Filed)
5,000ft
Speed:
(Current/Filed)
145kts
Departed: 13-May-20 12:05 PM
Arrived: 13-May-20 12:42 PM
Distance/Time
Traveled:
12nm/0:37
Distance/Time
To Go:
Arrived

Flight Plot

Page will automatically refresh every two minutes.

Flight plan parsing failed; only flown route is shown


Map Options




Map Legend


Flown Route
Filed Route
Departure Airport
Arrival Airport
Navaid (VOR, NDB)
Fix

Horizontal Profiles

Position Reports

Time Latitude Longitude Heading Altitude Ground
Speed
13-May-20 11:54 48.524491 -123.025851 169 115ft 0kts
13-May-20 11:55 48.524491 -123.025851 169 115ft 0kts
13-May-20 11:56 48.524491 -123.025851 169 115ft 0kts
13-May-20 11:57 48.524491 -123.025851 169 115ft 0kts
13-May-20 11:58 48.524491 -123.025851 169 115ft 0kts
13-May-20 11:59 48.524491 -123.025851 169 115ft 0kts
13-May-20 12:00 48.523681 -123.025697 178 112ft 12kts
13-May-20 12:01 48.521176 -123.024906 177 101ft 10kts
13-May-20 12:02 48.517589 -123.024649 174 91ft 5kts
13-May-20 12:03 48.517427 -123.024580 145 90ft 0kts
13-May-20 12:04 48.518468 -123.024063 357 91ft 44kts
13-May-20 12:05 48.541623 -123.025490 36 1292ft 93kts
13-May-20 12:06 48.522380 -123.019947 195 2548ft 101kts
13-May-20 12:07 48.495192 -123.025417 178 4010ft 96kts
13-May-20 12:08 48.507446 -123.017180 329 4560ft 144kts
13-May-20 12:09 48.516374 -123.002425 177 5034ft 130kts
13-May-20 12:10 48.481204 -123.003024 176 5036ft 124kts
13-May-20 12:11 48.487569 -123.030951 2 4966ft 139kts
13-May-20 12:12 48.520273 -123.014169 88 5026ft 128kts
13-May-20 12:13 48.492714 -122.988798 169 5030ft 130kts
13-May-20 12:14 48.460185 -122.964195 144 5014ft 133kts
13-May-20 12:15 48.430826 -122.931572 145 5012ft 129kts
13-May-20 12:16 48.400191 -122.903136 151 5006ft 129kts
13-May-20 12:17 48.369468 -122.875823 150 5067ft 127kts
13-May-20 12:18 48.338169 -122.847614 151 5049ft 128kts
13-May-20 12:19 48.306990 -122.819692 150 5040ft 131kts
13-May-20 12:20 48.275529 -122.791149 150 5039ft 131kts
13-May-20 12:21 48.244203 -122.762734 150 5039ft 131kts
13-May-20 12:22 48.212942 -122.734375 150 5039ft 130kts
13-May-20 12:23 48.182205 -122.706453 150 5038ft 128kts
13-May-20 12:24 48.153662 -122.675785 109 5037ft 133kts
13-May-20 12:25 48.181673 -122.659389 326 5040ft 148kts
13-May-20 12:26 48.216213 -122.693443 325 4846ft 148kts
13-May-20 12:27 48.253013 -122.724189 343 4216ft 150kts
13-May-20 12:28 48.292835 -122.744677 335 3602ft 149kts
13-May-20 12:29 48.330768 -122.771806 333 3027ft 149kts
13-May-20 12:30 48.367854 -122.798518 333 3039ft 148kts
13-May-20 12:31 48.404871 -122.825927 333 3033ft 148kts
13-May-20 12:32 48.442605 -122.850105 335 3008ft 147kts
13-May-20 12:33 48.479055 -122.876575 334 3008ft 144kts
13-May-20 12:34 48.515169 -122.902368 334 3006ft 142kts
13-May-20 12:35 48.553422 -122.912215 2 2897ft 139kts
13-May-20 12:36 48.589840 -122.911531 1 2629ft 121kts
13-May-20 12:37 48.622521 -122.910995 0 2450ft 111kts
13-May-20 12:38 48.652960 -122.910635 0 1534ft 104kts
13-May-20 12:39 48.679068 -122.910713 0 782ft 81kts
13-May-20 12:40 48.701554 -122.910646 0 130ft 82kts
13-May-20 12:41 48.710388 -122.910527 186 24ft 6kts
13-May-20 12:42 48.709095 -122.910013 179 27ft 7kts
13-May-20 12:43 48.706616 -122.909718 154 36ft 3kts
13-May-20 12:44 48.706531 -122.909703 181 36ft 0kts
13-May-20 12:45 48.706531 -122.909703 181 36ft 0kts

Navigation Log

Ident Type
Flight plan parsing failed, navigation log unavailable